Time;durP1;ratioP1;P1;durP2;ratioP2;P2;SDS_P1;SDS_P2;PMS_P1;PMS_P2;Temp;Humidity;BMP_temperature;BMP_pressure;BME280_temperature;BME280_humidity;BME280_pressure;Samples;Min_cycle;Max_cycle;Signal;HPM_P1;HPM_P2
2021/08/08 00:01:31;;;;;;;7.72;3.92;;;;;;;16.41;76.98;98674.03;1739159;81;21459;-68
2021/08/08 00:03:58;;;;;;;4.70;3.90;;;;;;;16.41;76.98;98669.22;1741077;80;20903;-68
2021/08/08 00:06:24;;;;;;;5.83;4.00;;;;;;;16.42;76.96;98666.95;1742079;80;20958;-68
2021/08/08 00:08:51;;;;;;;5.93;3.67;;;;;;;16.42;76.96;98668.27;1744839;81;20923;-68
2021/08/08 00:11:17;;;;;;;6.47;3.70;;;;;;;16.42;76.95;98653.78;1743759;81;21044;-68
2021/08/08 00:13:44;;;;;;;7.28;3.92;;;;;;;16.42;76.95;98655.09;1769444;79;21149;-68
2021/08/08 00:19:26;;;;;;;7.13;4.73;;;;;;;16.47;77.04;98658.17;1849864;74;29067;-67
2021/08/08 00:21:53;;;;;;;7.62;3.85;;;;;;;16.49;76.85;98660.16;1854432;75;20916;-67
2021/08/08 00:24:19;;;;;;;4.25;3.42;;;;;;;16.53;76.83;98661.57;1847863;75;21066;-67
2021/08/08 00:26:46;;;;;;;7.45;3.42;;;;;;;16.56;76.86;98659.98;1846382;75;21095;-67
2021/08/08 00:29:13;;;;;;;5.45;3.20;;;;;;;16.58;76.85;98658.50;1859067;75;21539;-67
2021/08/08 00:31:39;;;;;;;5.80;3.45;;;;;;;16.59;76.83;98658.38;1838732;75;21001;-67
2021/08/08 00:34:06;;;;;;;5.85;3.40;;;;;;;16.60;76.83;98654.77;1831936;75;21004;-67
2021/08/08 00:36:34;;;;;;;7.28;3.75;;;;;;;16.60;76.79;98646.86;1761607;78;21443;-67
2021/08/08 00:39:02;;;;;;;6.15;4.12;;;;;;;16.62;76.76;98647.56;1811119;77;21618;-67
2021/08/08 00:41:28;;;;;;;4.95;3.95;;;;;;;16.62;76.76;98639.66;1819617;77;21507;-67
2021/08/08 00:43:55;;;;;;;8.53;3.95;;;;;;;16.64;76.72;98650.91;1819850;77;21052;-67
2021/08/08 00:46:22;;;;;;;5.87;3.40;;;;;;;16.64;76.70;98656.17;1820303;77;20941;-67
2021/08/08 00:48:48;;;;;;;4.62;3.40;;;;;;;16.63;76.64;98661.08;1823661;77;21416;-67
2021/08/08 00:51:15;;;;;;;5.20;3.72;;;;;;;16.63;76.66;98665.03;1778547;79;20965;-67
2021/08/08 00:53:42;;;;;;;3.53;3.17;;;;;;;16.65;76.67;98671.01;1842784;77;21017;-67
2021/08/08 00:56:08;;;;;;;3.90;3.33;;;;;;;16.67;76.64;98663.80;1837474;76;21151;-67
2021/08/08 00:58:35;;;;;;;5.67;3.40;;;;;;;16.67;76.57;98655.90;1837646;76;21034;-68
2021/08/08 01:01:04;;;;;;;4.87;3.27;;;;;;;16.66;76.60;98648.94;1840327;76;21094;-67
2021/08/08 01:03:31;;;;;;;9.05;4.25;;;;;;;16.68;76.57;98654.92;1843013;77;20914;-67
2021/08/08 01:06:06;;;;;;;6.40;3.50;;;;;;;16.68;76.53;98648.81;1827263;76;20964;-67
2021/08/08 01:08:33;;;;;;;4.70;3.67;;;;;;;16.69;76.54;98655.28;1836642;76;21032;-67
2021/08/08 01:11:02;;;;;;;4.50;3.60;;;;;;;16.68;76.47;98650.96;1839947;77;21057;-67
2021/08/08 01:13:32;;;;;;;9.40;3.77;;;;;;;16.68;76.46;98644.37;1839660;77;21067;-67
2021/08/08 01:15:59;;;;;;;4.47;3.42;;;;;;;16.69;76.46;98648.70;1834856;77;20977;-68
2021/08/08 01:18:26;;;;;;;6.55;3.58;;;;;;;16.70;76.42;98650.34;1833084;77;20972;-67
2021/08/08 01:20:53;;;;;;;6.47;3.80;;;;;;;16.68;76.36;98649.64;1779717;78;20956;-67
2021/08/08 01:23:24;;;;;;;4.62;3.10;;;;;;;16.70;76.36;98649.52;1830688;77;21518;-68
2021/08/08 01:25:51;;;;;;;5.47;3.27;;;;;;;16.69;76.34;98638.16;1831500;77;21953;-67
2021/08/08 01:28:18;;;;;;;6.30;3.60;;;;;;;16.68;76.30;98633.83;1828161;77;21574;-67
2021/08/08 01:30:44;;;;;;;3.60;3.30;;;;;;;16.69;76.28;98644.74;1828867;77;21612;-67
2021/08/08 01:33:12;;;;;;;6.17;3.50;;;;;;;16.70;76.24;98649.52;1830237;77;21120;-67
2021/08/08 01:35:39;;;;;;;4.78;3.20;;;;;;;16.68;76.21;98643.05;1830054;77;20944;-67
2021/08/08 01:38:08;;;;;;;7.80;4.10;;;;;;;16.69;76.18;98628.93;1831116;77;21417;-67
2021/08/08 01:40:57;;;;;;;5.47;3.15;;;;;;;16.67;76.14;98613.73;1827155;77;21028;-67
2021/08/08 01:43:27;;;;;;;5.62;3.17;;;;;;;16.66;76.14;98619.95;1830859;77;20933;-66
2021/08/08 01:46:03;;;;;;;3.30;3.00;;;;;;;16.65;76.11;98633.28;1826726;76;21000;-67
2021/08/08 01:48:27;;;;;;;6.45;3.12;;;;;;;16.63;76.07;98622.87;1832488;76;20992;-67
2021/08/08 01:50:53;;;;;;;3.52;3.02;;;;;;;16.60;76.03;98613.92;1826036;77;21700;-67
2021/08/08 01:53:20;;;;;;;7.50;3.63;;;;;;;16.57;76.02;98615.52;1830511;76;20881;-67
2021/08/08 01:55:46;;;;;;;4.53;3.17;;;;;;;16.58;76.02;98611.08;1831652;76;20931;-67
2021/08/08 01:58:13;;;;;;;6.03;3.47;;;;;;;16.56;76.01;98628.35;1830945;76;21262;-68
2021/08/08 02:00:40;;;;;;;4.03;3.22;;;;;;;16.53;75.98;98627.31;1831332;76;21018;-68
2021/08/08 02:03:07;;;;;;;6.17;3.10;;;;;;;16.54;75.95;98621.06;1834137;76;21924;-68
2021/08/08 02:05:36;;;;;;;5.95;2.90;;;;;;;16.51;75.88;98626.61;1827520;76;21518;-68
2021/08/08 02:08:03;;;;;;;3.55;3.00;;;;;;;16.48;75.87;98625.56;1833329;76;20948;-67
2021/08/08 02:10:30;;;;;;;6.03;3.52;;;;;;;16.46;75.86;98620.91;1828267;76;20980;-67
2021/08/08 02:12:56;;;;;;;5.73;3.37;;;;;;;16.45;75.87;98623.20;1828102;76;21318;-67
2021/08/08 02:15:23;;;;;;;3.73;2.97;;;;;;;16.43;75.88;98623.82;1829922;76;21109;-67
2021/08/08 02:17:50;;;;;;;3.72;3.12;;;;;;;16.30;75.84;98606.97;1829251;77;21363;-67
2021/08/08 02:20:19;;;;;;;3.27;2.97;;;;;;;16.42;75.81;98627.44;1834738;77;21013;-66
2021/08/08 02:22:47;;;;;;;4.25;2.70;;;;;;;16.42;75.80;98636.66;1834832;77;21746;-68
2021/08/08 02:25:14;;;;;;;4.55;2.90;;;;;;;16.42;75.79;98634.02;1814107;77;21207;-67
2021/08/08 02:27:41;;;;;;;6.25;3.00;;;;;;;16.43;75.77;98634.36;1812700;77;21136;-67
2021/08/08 02:30:10;;;;;;;2.83;2.52;;;;;;;16.44;75.73;98636.87;1810889;78;21040;-67
2021/08/08 02:32:37;;;;;;;5.05;3.05;;;;;;;16.47;75.71;98643.67;1807235;78;21028;-67
2021/08/08 02:35:05;;;;;;;8.63;3.02;;;;;;;16.46;75.67;98644.13;1807049;78;20942;-67
2021/08/08 02:37:31;;;;;;;4.30;2.98;;;;;;;16.48;75.66;98642.69;1814312;78;20958;-67
2021/08/08 02:39:58;;;;;;;4.35;2.58;;;;;;;16.47;75.64;98651.58;1805320;78;21109;-67
2021/08/08 02:42:26;;;;;;;3.43;2.60;;;;;;;16.46;75.62;98650.72;1807644;78;21005;-67
2021/08/08 02:44:53;;;;;;;4.45;2.90;;;;;;;16.46;75.63;98641.98;1799057;77;20926;-67
2021/08/08 02:47:20;;;;;;;6.13;2.70;;;;;;;16.46;75.59;98643.30;1806734;77;20952;-67
2021/08/08 02:49:46;;;;;;;4.37;3.20;;;;;;;16.48;75.60;98645.33;1802710;77;21374;-67
2021/08/08 02:52:13;;;;;;;3.65;2.70;;;;;;;16.47;75.57;98644.99;1796259;77;21927;-67
2021/08/08 02:54:40;;;;;;;6.47;2.97;;;;;;;16.46;75.55;98645.94;1802665;77;21493;-67
2021/08/08 02:57:06;;;;;;;6.03;3.00;;;;;;;16.44;75.51;98651.82;1835563;77;21664;-68
2021/08/08 02:59:35;;;;;;;4.03;2.67;;;;;;;16.41;75.47;98646.83;1837817;77;20953;-68
2021/08/08 03:02:02;;;;;;;6.92;2.55;;;;;;;16.38;75.48;98648.42;1838254;76;21431;-67
2021/08/08 03:04:29;;;;;;;7.62;2.83;;;;;;;16.36;75.47;98651.70;1836610;77;21469;-67
2021/08/08 03:06:56;;;;;;;3.83;2.72;;;;;;;16.32;75.50;98657.20;1839850;77;20916;-67
2021/08/08 03:09:23;;;;;;;5.70;2.30;;;;;;;16.33;75.58;98655.43;1835757;76;20881;-67
2021/08/08 03:11:49;;;;;;;6.77;3.00;;;;;;;16.34;75.49;98660.55;1837248;77;20928;-67
2021/08/08 03:14:18;;;;;;;5.33;2.83;;;;;;;16.34;75.49;98664.50;1841459;77;21017;-67
2021/08/08 03:16:46;;;;;;;6.40;2.33;;;;;;;16.34;75.46;98662.35;1836041;77;21464;-68
2021/08/08 03:19:14;;;;;;;6.30;3.22;;;;;;;16.32;75.45;98670.38;1835981;76;20918;-67
2021/08/08 03:21:41;;;;;;;3.95;2.42;;;;;;;16.31;75.49;98676.63;1837616;77;20923;-68
2021/08/08 03:24:08;;;;;;;3.58;2.58;;;;;;;16.30;75.45;98674.97;1832479;76;20959;-67
2021/08/08 03:26:35;;;;;;;5.25;3.05;;;;;;;16.30;75.53;98680.23;1836334;76;20891;-67
2021/08/08 03:29:03;;;;;;;5.22;2.52;;;;;;;16.29;75.44;98679.86;1837406;76;21062;-67
2021/08/08 03:31:30;;;;;;;3.77;2.72;;;;;;;16.26;75.46;98681.45;1837935;76;20915;-68
2021/08/08 03:33:57;;;;;;;3.47;2.70;;;;;;;16.28;75.54;98683.48;1840066;76;26545;-67
2021/08/08 03:36:23;;;;;;;3.40;2.50;;;;;;;16.26;75.48;98682.77;1836607;77;20993;-67
2021/08/08 03:38:51;;;;;;;4.28;2.50;;;;;;;16.25;75.56;98678.48;1837876;77;21465;-67
2021/08/08 03:41:17;;;;;;;3.62;2.40;;;;;;;16.23;75.50;98684.36;1838799;77;21103;-67
2021/08/08 03:43:44;;;;;;;3.67;2.60;;;;;;;16.21;75.57;98688.91;1837299;77;20950;-67
2021/08/08 03:46:11;;;;;;;5.60;2.87;;;;;;;16.17;75.57;98688.84;1836413;76;20950;-67
2021/08/08 03:48:37;;;;;;;3.95;2.60;;;;;;;16.17;75.60;98692.80;1839119;76;20914;-67
2021/08/08 03:51:05;;;;;;;4.40;2.58;;;;;;;16.12;75.55;98692.36;1836096;77;20932;-68
2021/08/08 03:53:32;;;;;;;4.03;2.42;;;;;;;16.07;75.58;98689.28;1832890;77;21099;-67
2021/08/08 03:55:58;;;;;;;5.97;2.43;;;;;;;16.04;75.67;98685.60;1831015;76;20934;-67
2021/08/08 03:58:30;;;;;;;4.13;2.30;;;;;;;16.04;75.72;98692.18;1825600;77;21732;-68
2021/08/08 04:00:53;;;;;;;3.05;2.15;;;;;;;15.99;75.73;98707.53;1833146;76;21001;-67
2021/08/08 04:03:21;;;;;;;3.40;2.20;;;;;;;15.96;75.82;98702.53;1822707;77;21523;-67
2021/08/08 04:05:47;;;;;;;3.42;2.02;;;;;;;15.92;75.84;98712.99;1829062;77;21262;-67
2021/08/08 04:08:14;;;;;;;3.77;2.50;;;;;;;15.86;75.90;98715.17;1830794;77;21553;-67
2021/08/08 04:10:41;;;;;;;3.30;2.50;;;;;;;15.86;76.05;98719.61;1831042;77;20986;-67
2021/08/08 04:13:07;;;;;;;2.80;2.17;;;;;;;15.80;76.04;98723.59;1829854;76;20952;-67
2021/08/08 04:15:34;;;;;;;3.47;2.30;;;;;;;15.77;76.10;98733.08;1831231;77;20924;-67
2021/08/08 04:18:00;;;;;;;4.78;2.30;;;;;;;15.71;76.21;98730.97;1831413;77;21455;-67
2021/08/08 04:20:27;;;;;;;3.70;2.20;;;;;;;15.69;76.27;98727.62;1833738;77;20979;-67
2021/08/08 04:22:54;;;;;;;4.20;2.87;;;;;;;15.66;76.43;98729.16;1833024;77;20967;-67
2021/08/08 04:25:21;;;;;;;4.60;2.63;;;;;;;15.60;76.40;98728.34;1833876;77;20963;-67
2021/08/08 04:27:47;;;;;;;5.58;2.50;;;;;;;15.56;76.47;98733.52;1831169;77;20993;-67
2021/08/08 04:30:14;;;;;;;4.07;2.27;;;;;;;15.52;76.66;98741.33;1835294;77;22000;-67
2021/08/08 04:32:40;;;;;;;7.10;2.80;;;;;;;15.47;76.92;98740.88;1834268;76;21502;-67
2021/08/08 04:35:08;;;;;;;4.07;2.60;;;;;;;15.42;76.81;98752.59;1834001;76;21119;-67
2021/08/08 04:37:35;;;;;;;3.15;2.40;;;;;;;15.37;76.83;98752.13;1826742;76;21072;-68
2021/08/08 04:40:02;;;;;;;4.30;2.67;;;;;;;15.34;76.98;98749.76;1831040;77;21052;-67
2021/08/08 04:42:29;;;;;;;4.53;2.40;;;;;;;15.32;77.06;98753.02;1830932;77;21247;-67
2021/08/08 04:44:55;;;;;;;3.37;2.65;;;;;;;15.30;77.17;98748.35;1832500;77;21564;-67
2021/08/08 04:47:22;;;;;;;4.43;3.03;;;;;;;15.30;77.27;98744.41;1835556;76;20952;-67
2021/08/08 04:49:48;;;;;;;5.13;2.40;;;;;;;15.32;77.37;98741.18;1833055;77;20976;-67
2021/08/08 04:52:15;;;;;;;4.55;3.05;;;;;;;15.33;77.44;98738.89;1829972;77;21029;-68
2021/08/08 04:54:42;;;;;;;4.60;2.67;;;;;;;15.33;77.47;98734.95;1838290;77;21389;-67
2021/08/08 04:57:09;;;;;;;3.30;2.60;;;;;;;15.36;77.58;98736.49;1835447;77;21466;-68
2021/08/08 04:59:35;;;;;;;3.72;2.60;;;;;;;15.38;77.59;98734.09;1828579;77;21015;-68
2021/08/08 05:02:02;;;;;;;5.22;2.47;;;;;;;15.39;77.73;98728.34;1831782;77;21504;-68
2021/08/08 05:04:29;;;;;;;5.00;2.67;;;;;;;15.44;77.79;98730.95;1832446;77;20965;-67
2021/08/08 05:06:56;;;;;;;7.13;3.07;;;;;;;15.50;77.89;98730.09;1833645;77;21119;-68
2021/08/08 05:09:24;;;;;;;3.22;2.17;;;;;;;15.55;77.90;98733.17;1833653;77;21572;-68
2021/08/08 05:11:51;;;;;;;6.60;2.95;;;;;;;15.57;77.93;98729.45;1834508;77;20978;-68
2021/08/08 05:14:18;;;;;;;4.62;2.72;;;;;;;15.64;77.98;98732.39;1834231;77;21580;-68
2021/08/08 05:16:45;;;;;;;4.47;2.45;;;;;;;15.69;77.93;98730.25;1830892;77;20885;-68
2021/08/08 05:19:11;;;;;;;4.30;3.10;;;;;;;15.69;77.94;98732.88;1833789;76;21472;-67
2021/08/08 05:21:38;;;;;;;3.07;2.77;;;;;;;15.70;78.05;98739.80;1832721;77;20935;-68
2021/08/08 05:24:04;;;;;;;2.87;2.37;;;;;;;15.74;78.12;98751.76;1832367;77;21737;-67
2021/08/08 05:26:31;;;;;;;5.15;2.33;;;;;;;15.76;78.16;98744.55;1830324;77;21473;-67
2021/08/08 05:28:58;;;;;;;4.80;2.60;;;;;;;15.79;78.24;98747.41;1796174;78;20969;-68
2021/08/08 05:31:24;;;;;;;3.83;2.50;;;;;;;15.77;78.24;98750.67;1801654;77;21460;-67
2021/08/08 05:33:51;;;;;;;3.92;2.40;;;;;;;15.74;78.23;98750.44;1815817;77;20981;-67
2021/08/08 05:36:17;;;;;;;5.23;2.60;;;;;;;15.74;78.36;98746.50;1806262;77;21049;-68
2021/08/08 05:38:44;;;;;;;5.00;3.10;;;;;;;15.73;78.39;98739.55;1798004;78;20938;-68
2021/08/08 05:41:12;;;;;;;4.53;2.43;;;;;;;15.72;78.43;98741.83;1804309;78;22178;-68
2021/08/08 05:43:39;;;;;;;3.75;2.27;;;;;;;15.76;78.59;98741.08;1803116;78;22250;-67
2021/08/08 05:46:06;;;;;;;4.70;2.40;;;;;;;15.78;78.59;98745.26;1803353;78;21450;-67
2021/08/08 05:48:32;;;;;;;3.70;2.70;;;;;;;15.85;78.69;98741.16;1804668;78;22112;-67
2021/08/08 05:50:59;;;;;;;2.67;2.17;;;;;;;15.85;78.69;98741.16;1803477;78;21016;-67
2021/08/08 05:53:26;;;;;;;2.72;1.98;;;;;;;15.88;78.72;98747.48;1812527;78;20984;-67
2021/08/08 05:55:54;;;;;;;5.30;2.58;;;;;;;15.94;78.75;98741.34;1820548;77;21450;-67
2021/08/08 05:58:21;;;;;;;3.52;2.17;;;;;;;15.97;78.83;98751.61;1823681;77;21567;-67
2021/08/08 06:00:47;;;;;;;3.12;2.40;;;;;;;15.99;78.89;98745.71;1824675;77;21120;-67
2021/08/08 06:03:14;;;;;;;4.77;2.60;;;;;;;16.03;79.01;98748.45;1836430;77;21036;-68
2021/08/08 06:05:43;;;;;;;1.90;1.72;;;;;;;16.13;79.07;98751.95;1825556;77;20895;-68
2021/08/08 06:08:10;;;;;;;3.42;2.20;;;;;;;16.23;79.17;98743.62;1833235;77;21070;-68
2021/08/08 06:10:37;;;;;;;2.87;2.35;;;;;;;16.33;79.19;98737.91;1820711;77;20859;-68
2021/08/08 06:13:04;;;;;;;3.85;1.87;;;;;;;16.44;79.13;98742.72;1837204;77;20906;-67
2021/08/08 06:15:31;;;;;;;2.15;1.90;;;;;;;16.52;79.14;98736.30;1837411;77;21004;-68
2021/08/08 06:17:57;;;;;;;2.17;1.75;;;;;;;16.61;79.27;98736.83;1836706;77;21022;-68
2021/08/08 06:20:24;;;;;;;4.15;1.90;;;;;;;16.70;79.19;98739.97;1834194;77;21992;-67
2021/08/08 06:22:51;;;;;;;8.17;2.10;;;;;;;16.81;79.21;98740.86;1834938;77;20973;-67
2021/08/08 06:25:18;;;;;;;8.13;2.42;;;;;;;16.89;79.28;98739.20;1818694;77;20926;-67
2021/08/08 06:27:46;;;;;;;2.60;1.95;;;;;;;16.94;79.20;98728.23;1815812;77;20952;-68
2021/08/08 06:30:13;;;;;;;3.45;2.20;;;;;;;16.99;79.22;98728.66;1828769;77;20953;-67
2021/08/08 06:32:41;;;;;;;2.80;2.00;;;;;;;17.03;79.21;98730.06;1833837;77;21121;-67
2021/08/08 06:35:09;;;;;;;3.70;2.00;;;;;;;17.08;79.21;98727.83;1805672;77;22581;-68
2021/08/08 06:37:40;;;;;;;2.45;2.05;;;;;;;17.16;79.31;98725.33;1838737;76;20978;-67
2021/08/08 06:40:06;;;;;;;1.92;1.70;;;;;;;17.24;79.34;98737.84;1838798;76;21019;-68
2021/08/08 06:42:35;;;;;;;4.10;1.82;;;;;;;17.35;79.35;98747.42;1839185;77;20970;-69
2021/08/08 06:45:02;;;;;;;4.72;2.25;;;;;;;17.45;79.24;98739.02;1834534;77;21512;-69
2021/08/08 06:47:29;;;;;;;2.22;2.02;;;;;;;17.51;79.25;98743.73;1836235;77;20920;-69
2021/08/08 06:49:55;;;;;;;3.00;1.87;;;;;;;17.62;79.28;98746.72;1837857;77;20987;-69
2021/08/08 06:52:22;;;;;;;2.55;1.87;;;;;;;17.70;79.17;98756.09;1837233;77;20904;-70
2021/08/08 06:54:51;;;;;;;2.67;1.82;;;;;;;17.73;79.15;98768.14;1835471;77;20914;-68
2021/08/08 06:57:25;;;;;;;5.30;1.95;;;;;;;17.81;79.31;98772.27;1835979;77;21010;-69
2021/08/08 06:59:52;;;;;;;3.15;1.80;;;;;;;17.84;79.20;98777.25;1840049;77;20893;-69
2021/08/08 07:02:19;;;;;;;2.22;1.65;;;;;;;17.86;79.21;98780.59;1839134;77;20963;-69
2021/08/08 07:04:45;;;;;;;;;;;;;;;17.81;78.96;98784.14;1843308;76;21545;-69
2021/08/08 07:07:12;;;;;;;3.02;1.70;;;;;;;17.76;79.12;98779.77;1834617;76;20163;-69
2021/08/08 07:09:38;;;;;;;3.17;1.97;;;;;;;17.77;79.25;98773.50;1834597;77;21445;-69
2021/08/08 07:12:06;;;;;;;4.00;2.10;;;;;;;17.87;79.47;98755.88;1836925;77;22147;-68
2021/08/08 07:14:35;;;;;;;4.08;1.77;;;;;;;18.02;79.48;98754.44;1833978;77;21159;-68
2021/08/08 07:17:03;;;;;;;3.62;1.50;;;;;;;18.24;79.57;98755.07;1838148;76;21015;-69
2021/08/08 07:19:30;;;;;;;3.40;1.77;;;;;;;18.47;79.46;98764.28;1836393;77;20953;-69
2021/08/08 07:21:57;;;;;;;2.98;1.77;;;;;;;18.76;79.43;98760.68;1840290;76;21243;-69
2021/08/08 07:24:23;;;;;;;3.08;1.37;;;;;;;19.02;79.33;98767.43;1839144;77;21606;-69
2021/08/08 07:26:50;;;;;;;1.65;1.35;;;;;;;19.26;79.14;98773.44;1841894;76;20966;-69
2021/08/08 07:29:17;;;;;;;2.10;1.50;;;;;;;19.49;78.81;98771.66;1838379;76;20945;-69
2021/08/08 07:31:43;;;;;;;2.47;1.87;;;;;;;19.64;78.82;98778.09;1834879;77;20985;-69
2021/08/08 07:34:10;;;;;;;2.35;1.70;;;;;;;19.63;78.28;98771.11;1842093;76;21627;-68
2021/08/08 07:36:37;;;;;;;2.12;1.70;;;;;;;19.80;78.40;98774.28;1836798;77;20977;-70
2021/08/08 07:39:03;;;;;;;2.70;1.80;;;;;;;20.03;78.72;98768.47;1835893;76;21496;-67
2021/08/08 07:41:30;;;;;;;2.60;1.55;;;;;;;20.52;78.18;98766.06;1838077;77;21649;-68
2021/08/08 07:43:58;;;;;;;3.67;1.70;;;;;;;20.52;78.18;98766.06;1838844;76;20974;-68
2021/08/08 07:46:25;;;;;;;2.60;1.50;;;;;;;20.73;77.73;98760.39;1839287;76;21035;-67
2021/08/08 07:48:52;;;;;;;5.12;1.82;;;;;;;20.83;77.47;98761.06;1834156;77;21020;-67
2021/08/08 07:51:18;;;;;;;3.87;1.65;;;;;;;20.92;77.34;98768.55;1832915;76;20999;-66
2021/08/08 07:53:45;;;;;;;1.70;1.55;;;;;;;21.00;77.11;98768.10;1838555;77;21540;-67
2021/08/08 07:56:12;;;;;;;2.02;1.62;;;;;;;21.03;77.17;98774.87;1833016;77;20969;-66
2021/08/08 07:58:38;;;;;;;2.27;1.65;;;;;;;21.01;77.00;98768.92;1839888;77;21089;-68
2021/08/08 08:01:05;;;;;;;8.25;2.00;;;;;;;20.93;76.87;98771.55;1843452;77;20989;-68
2021/08/08 08:03:32;;;;;;;2.30;1.80;;;;;;;21.04;77.15;98768.59;1839232;76;21795;-67
2021/08/08 08:05:58;;;;;;;4.28;1.62;;;;;;;21.23;77.11;98777.59;1841282;77;21065;-67
2021/08/08 08:08:25;;;;;;;2.92;1.50;;;;;;;21.44;76.84;98768.34;1839621;77;21003;-67
2021/08/08 08:10:52;;;;;;;3.20;1.60;;;;;;;21.41;76.40;98772.16;1837538;77;21467;-67
2021/08/08 08:13:18;;;;;;;;;;;;;;;21.36;76.24;98777.59;1844973;77;20973;-67
2021/08/08 08:15:45;;;;;;;4.05;1.90;;;;;;;21.29;76.08;98785.91;1839374;76;20215;-68
2021/08/08 08:18:13;;;;;;;2.70;1.70;;;;;;;21.19;75.79;98781.55;1834265;77;22267;-68
2021/08/08 08:20:42;;;;;;;5.78;2.17;;;;;;;21.09;75.62;98786.20;1831866;77;21018;-67
2021/08/08 08:23:09;;;;;;;4.60;1.70;;;;;;;20.96;75.66;98769.40;1839241;77;21108;-67
2021/08/08 08:25:37;;;;;;;2.33;1.70;;;;;;;21.00;75.88;98767.25;1833127;77;21547;-68
2021/08/08 08:28:04;;;;;;;3.10;2.00;;;;;;;21.24;76.24;98764.64;1837386;76;20934;-66
2021/08/08 08:30:32;;;;;;;2.00;1.42;;;;;;;21.58;76.10;98763.70;1830114;77;20946;-66
2021/08/08 08:33:04;;;;;;;2.42;1.90;;;;;;;22.01;76.23;98765.64;1829216;77;21001;-66
2021/08/08 08:35:28;;;;;;;6.33;2.10;;;;;;;22.53;76.25;98771.03;1830910;77;21224;-66
2021/08/08 08:37:55;;;;;;;2.85;2.10;;;;;;;22.84;75.66;98764.40;1829351;77;21492;-66
2021/08/08 08:40:22;;;;;;;2.00;1.80;;;;;;;23.11;75.18;98750.31;1838529;76;20977;-66
2021/08/08 08:42:54;;;;;;;3.60;2.02;;;;;;;23.41;75.14;98749.44;1835844;77;21775;-66
2021/08/08 08:45:21;;;;;;;4.42;1.70;;;;;;;23.56;74.21;98756.64;1836863;77;20970;-66
2021/08/08 08:47:50;;;;;;;2.08;1.42;;;;;;;23.63;74.03;98750.39;1832826;76;22090;-66
2021/08/08 08:50:20;;;;;;;4.08;1.52;;;;;;;23.69;73.79;98750.17;1834073;77;20985;-67
2021/08/08 08:52:48;;;;;;;9.18;2.00;;;;;;;23.66;73.39;98759.87;1830885;76;21618;-66
2021/08/08 08:55:14;;;;;;;3.42;1.82;;;;;;;23.59;72.83;98769.60;1836043;77;20997;-66
2021/08/08 08:57:43;;;;;;;5.65;1.80;;;;;;;23.31;72.34;98770.14;1832178;77;21573;-66
2021/08/08 09:00:11;;;;;;;2.12;1.55;;;;;;;23.03;72.41;98766.34;1838790;77;21131;-66
2021/08/08 09:02:38;;;;;;;1.95;1.57;;;;;;;22.91;72.52;98765.38;1836688;77;20954;-66
2021/08/08 09:05:27;;;;;;;3.58;1.70;;;;;;;22.89;72.76;98759.89;1732252;80;20924;-66
2021/08/08 09:07:55;;;;;;;2.20;1.85;;;;;;;23.09;72.76;98766.96;1721487;81;21007;-65
2021/08/08 09:10:23;;;;;;;1.87;1.40;;;;;;;23.17;72.66;98770.91;1720884;81;21056;-66
2021/08/08 09:13:06;;;;;;;3.70;1.50;;;;;;;23.25;72.05;98770.86;1731129;81;21067;-66
2021/08/08 09:15:41;;;;;;;2.42;1.50;;;;;;;23.15;71.78;98764.92;1734064;80;21091;-66
2021/08/08 09:18:22;;;;;;;2.80;1.47;;;;;;;23.07;71.74;98748.99;1733804;81;21005;-66
2021/08/08 09:20:52;;;;;;;2.85;1.50;;;;;;;23.06;71.73;98755.34;1731675;81;21023;-66
2021/08/08 09:23:21;;;;;;;2.33;1.50;;;;;;;23.28;71.98;98757.19;1730568;80;22207;-66
2021/08/08 09:25:56;;;;;;;2.50;1.45;;;;;;;23.39;71.23;98763.94;1696031;81;20932;-66
2021/08/08 09:28:31;;;;;;;2.62;1.62;;;;;;;23.50;71.52;98765.33;1722850;81;21028;-66
2021/08/08 09:31:00;;;;;;;5.65;1.72;;;;;;;23.89;71.64;98760.70;1745699;80;21530;-66
2021/08/08 09:33:28;;;;;;;2.52;1.85;;;;;;;24.05;70.74;98757.53;1712322;81;21044;-67
2021/08/08 09:35:57;;;;;;;2.30;1.70;;;;;;;24.10;70.34;98764.49;1753503;80;20904;-66
2021/08/08 09:38:24;;;;;;;3.17;1.30;;;;;;;24.13;70.36;98775.61;1745911;80;21070;-67
2021/08/08 09:41:00;;;;;;;4.20;1.70;;;;;;;24.32;70.51;98782.25;1731705;81;21075;-66
2021/08/08 09:43:29;;;;;;;3.67;2.30;;;;;;;24.56;70.82;98775.00;1734324;81;21131;-67
2021/08/08 09:45:56;;;;;;;2.40;1.40;;;;;;;24.67;69.90;98782.53;1724393;81;21024;-66
2021/08/08 09:48:38;;;;;;;2.92;1.60;;;;;;;24.41;68.32;98784.83;1753955;80;25915;-66
2021/08/08 09:51:08;;;;;;;3.25;1.45;;;;;;;24.11;68.97;98792.80;1729947;82;21068;-66
2021/08/08 09:53:35;;;;;;;10.72;1.50;;;;;;;24.34;69.23;98796.76;1730027;81;21036;-66
2021/08/08 09:56:02;;;;;;;10.30;1.80;;;;;;;24.40;68.90;98804.53;1726210;81;20982;-66
2021/08/08 09:58:34;;;;;;;7.78;1.70;;;;;;;24.03;68.10;98811.55;1728130;81;20991;-66
2021/08/08 10:01:01;;;;;;;2.17;1.62;;;;;;;23.74;67.99;98817.13;1729814;81;20941;-66
2021/08/08 10:03:35;;;;;;;2.92;1.70;;;;;;;23.57;68.23;98819.57;1735320;80;21640;-66
2021/08/08 10:06:00;;;;;;;2.15;1.20;;;;;;;23.42;68.22;98823.00;1763436;79;21059;-66
2021/08/08 10:08:29;;;;;;;3.77;1.62;;;;;;;23.46;67.98;98821.63;1767707;79;21023;-67
2021/08/08 10:10:58;;;;;;;2.08;1.42;;;;;;;23.51;68.14;98828.28;1767216;79;21122;-68
2021/08/08 10:13:52;;;;;;;1.55;1.45;;;;;;;23.59;67.56;98825.56;1765146;79;20938;-68
2021/08/08 10:16:19;;;;;;;1.85;1.40;;;;;;;23.51;67.25;98825.61;1768626;79;21156;-68
2021/08/08 10:18:54;;;;;;;5.83;1.70;;;;;;;23.44;67.31;98835.66;1766691;79;21005;-68
2021/08/08 10:21:24;;;;;;;4.25;1.32;;;;;;;23.31;67.07;98844.72;1770972;80;21511;-68
2021/08/08 10:23:53;;;;;;;1.77;1.47;;;;;;;23.23;66.91;98841.59;1768636;79;21487;-68
2021/08/08 10:26:21;;;;;;;6.17;1.70;;;;;;;23.12;66.91;98849.97;1770923;79;21603;-67
2021/08/08 10:28:53;;;;;;;2.75;1.37;;;;;;;23.30;67.67;98843.06;1765834;79;21925;-69
2021/08/08 10:34:46;;;;;;;1.67;1.57;;;;;;;23.88;67.17;98852.33;1642288;85;21646;-68
2021/08/08 10:37:15;;;;;;;1.47;1.27;;;;;;;24.02;66.75;98848.56;1651812;85;21577;-69
2021/08/08 10:39:46;;;;;;;1.50;1.40;;;;;;;24.34;66.72;98846.93;1636488;85;21191;-68
2021/08/08 10:44:51;;;;;;;3.22;1.30;;;;;;;24.65;65.91;98840.63;1605483;84;21159;-69
2021/08/08 10:47:32;;;;;;;14.50;1.70;;;;;;;24.71;65.59;98842.55;1564808;89;21228;-71
2021/08/08 10:50:16;;;;;;;8.48;1.70;;;;;;;24.86;65.66;98847.05;1565519;89;21706;-70
2021/08/08 10:52:46;;;;;;;2.95;1.65;;;;;;;24.91;65.66;98834.80;1591681;87;21167;-72
2021/08/08 10:55:26;;;;;;;1.87;1.75;;;;;;;25.08;65.24;98840.77;1593728;87;22670;-72
2021/08/08 10:58:02;;;;;;;22.98;1.92;;;;;;;25.09;64.65;98842.41;1561549;89;21765;-69
2021/08/08 11:00:35;;;;;;;19.60;2.15;;;;;;;25.04;64.55;98844.83;1535244;91;21132;-72
2021/08/08 11:03:15;;;;;;;6.28;1.80;;;;;;;25.03;64.54;98847.16;1551808;88;21145;-72
2021/08/08 11:05:43;;;;;;;6.40;1.80;;;;;;;25.20;64.53;98851.81;1516644;91;21098;-72
2021/08/08 11:08:12;;;;;;;9.50;1.90;;;;;;;25.36;64.68;98842.75;1555633;90;21213;-71
2021/08/08 11:10:42;;;;;;;2.42;1.82;;;;;;;25.59;64.57;98846.07;1556047;88;21718;-71
2021/08/08 11:13:22;;;;;;;5.15;2.05;;;;;;;25.56;63.53;98849.13;1602212;85;21829;-71
2021/08/08 11:15:51;;;;;;;4.08;1.80;;;;;;;25.61;63.71;98862.75;1638042;85;21186;-71
2021/08/08 11:18:30;;;;;;;5.83;2.12;;;;;;;25.33;62.56;98856.50;1641794;84;21215;-70
2021/08/08 11:21:01;;;;;;;3.17;2.02;;;;;;;25.10;63.14;98864.63;1617844;82;21125;-72
2021/08/08 11:23:31;;;;;;;4.70;1.87;;;;;;;25.12;62.76;98859.91;1664732;84;21089;-72
2021/08/08 11:26:02;;;;;;;2.30;1.90;;;;;;;24.86;62.43;98868.41;1676217;83;22493;-69
2021/08/08 11:28:30;;;;;;;2.85;2.15;;;;;;;24.78;62.87;98868.81;1655576;84;21085;-68
2021/08/08 11:30:58;;;;;;;3.00;2.15;;;;;;;25.05;62.69;98874.52;1658617;84;21172;-68
2021/08/08 11:33:26;;;;;;;4.40;2.15;;;;;;;25.17;62.70;98868.22;1654735;84;21113;-69
2021/08/08 11:36:00;;;;;;;2.15;1.65;;;;;;;25.34;62.23;98872.83;1652334;84;21371;-67
2021/08/08 11:41:03;;;;;;;4.55;2.45;;;;;;;25.03;61.96;98872.53;1807012;77;22708;-66
2021/08/08 11:43:33;;;;;;;2.98;1.98;;;;;;;25.15;62.36;98864.42;1776141;79;21086;-66
2021/08/08 11:46:04;;;;;;;2.45;1.92;;;;;;;25.36;62.17;98873.48;1783363;79;21076;-66
2021/08/08 11:48:31;;;;;;;3.67;2.08;;;;;;;25.53;62.09;98862.88;1780673;78;20938;-67
2021/08/08 11:51:02;;;;;;;4.85;1.72;;;;;;;25.76;61.74;98859.19;1780866;79;20991;-66